KDUB

Dubois Municipal Airport

Dubois, Wyoming, USA
METAR KDUB 241315Z AUTO 34009KT 10SM SCT042 SCT050 BKN080 08/03 A3015 RMK AO2
Observed Flight Rules
May-24 @ 13:15 UTC (32 minutes ago) Visual Flight Rules
Wind Visibility Clouds
340° at 9 knots 10 miles
  • Scattered at 4,200' AGL
  • Scattered at 5,000' AGL
  • Broken at 8,000' AGL
Temperatures Readings
Current 8°C / 46°F
Dewpoint 3°C / 37°F
Humidity 71%
Altimeter 30.15" Hg
Pressure 1021 hPa
Elevation 2224
METAR KDUB 241315Z AUTO 34009KT 10SM SCT042 SCT050 BKN080 08/03 A3015 RMK AO2
Observed Flight Rules
May-24 @ 13:15 UTC
(32 minutes ago)
VFR
Wind Visibility
340° at 9 knots 10 miles
Clouds
  • Scattered at 4,200' AGL
  • Scattered at 5,000' AGL
  • Broken at 8,000' AGL
Temperature Dewpoint
8°C / 46°F 3°C / 37°F
Humidity Altimeter Pressure
71% 30.15" Hg 1021 hPa